Time;durP1;ratioP1;P1;durP2;ratioP2;P2;SDS_P1;SDS_P2;PMS_P1;PMS_P2;Temp;Humidity;BMP_temperature;BMP_pressure;BME280_temperature;BME280_humidity;BME280_pressure;Samples;Min_cycle;Max_cycle;Signal;HPM_P1;HPM_P2
2022/07/31 00:02:12;;;;;;;6.10;5.22;;;;;;;23.29;57.24;96257.44;5075480;28;20123;-64
2022/07/31 00:04:39;;;;;;;5.90;5.35;;;;;;;23.31;57.25;96257.28;5074945;28;20088;-64
2022/07/31 00:07:08;;;;;;;7.97;5.97;;;;;;;23.37;56.92;96259.41;5076180;28;20041;-65
2022/07/31 00:09:35;;;;;;;6.85;5.65;;;;;;;23.37;56.59;96256.75;5075298;28;20448;-65
2022/07/31 00:12:02;;;;;;;6.25;5.50;;;;;;;23.40;57.14;96252.94;5075403;28;20044;-66
2022/07/31 00:14:29;;;;;;;10.88;5.20;;;;;;;23.26;57.32;96257.72;5075234;28;20049;-66
2022/07/31 00:16:57;;;;;;;9.05;5.50;;;;;;;23.21;57.64;96244.81;5078787;28;20044;-66
2022/07/31 00:19:24;;;;;;;5.68;4.88;;;;;;;23.12;57.40;96236.84;5075061;28;20044;-65
2022/07/31 00:21:51;;;;;;;8.13;5.38;;;;;;;23.13;57.75;96230.53;5075292;28;20450;-66
2022/07/31 00:24:19;;;;;;;7.13;5.28;;;;;;;23.15;57.85;96228.56;5074819;28;20136;-63
2022/07/31 00:26:46;;;;;;;7.88;5.82;;;;;;;23.11;57.81;96222.66;5075594;28;20563;-62
2022/07/31 00:29:13;;;;;;;6.55;5.25;;;;;;;23.07;58.44;96218.63;5095229;28;20067;-64
2022/07/31 00:31:41;;;;;;;6.22;5.10;;;;;;;23.03;58.56;96211.91;5093372;28;20101;-62
2022/07/31 00:34:08;;;;;;;7.15;4.90;;;;;;;22.97;59.00;96216.00;5095178;28;20052;-63
2022/07/31 00:36:35;;;;;;;11.00;5.05;;;;;;;22.95;59.28;96220.63;5095132;28;20102;-65
2022/07/31 00:39:02;;;;;;;7.15;5.28;;;;;;;22.86;59.43;96211.66;5093283;28;20071;-63
2022/07/31 00:41:39;;;;;;;6.10;5.03;;;;;;;22.81;59.97;96211.22;5094931;28;20493;-65
2022/07/31 00:44:07;;;;;;;5.78;5.18;;;;;;;22.75;60.54;96211.81;5094857;28;20052;-65
2022/07/31 00:46:34;;;;;;;5.55;4.93;;;;;;;22.78;60.15;96211.53;5094930;28;20409;-65
2022/07/31 00:49:02;;;;;;;7.50;5.00;;;;;;;22.79;60.62;96197.22;5092795;28;20040;-64
2022/07/31 00:51:29;;;;;;;9.02;5.35;;;;;;;22.76;60.62;96203.69;5094617;28;20052;-64
2022/07/31 00:53:56;;;;;;;9.15;4.88;;;;;;;22.72;60.85;96189.78;5075068;28;20048;-62
2022/07/31 00:56:24;;;;;;;5.47;4.97;;;;;;;22.71;60.83;96193.44;5074495;28;20135;-65
2022/07/31 00:58:54;;;;;;;5.35;4.95;;;;;;;22.64;61.24;96186.16;5079996;28;20040;-63
2022/07/31 01:01:21;;;;;;;5.72;5.05;;;;;;;22.64;60.81;96188.84;5094531;28;20083;-65
2022/07/31 01:03:48;;;;;;;5.70;5.20;;;;;;;22.60;61.02;96177.59;5094397;28;20079;-64
2022/07/31 01:06:15;;;;;;;5.07;4.57;;;;;;;22.53;61.09;96168.47;5094528;28;20044;-63
2022/07/31 01:08:42;;;;;;;7.53;5.30;;;;;;;22.40;61.03;96161.63;5093133;28;20097;-64
2022/07/31 01:11:15;;;;;;;5.63;5.00;;;;;;;22.34;61.52;96159.53;5094188;28;20052;-62
2022/07/31 01:13:49;;;;;;;5.95;5.25;;;;;;;22.41;60.85;96151.81;5094295;28;20044;-63
2022/07/31 01:16:18;;;;;;;6.28;5.28;;;;;;;22.47;60.54;96159.22;5093310;28;20047;-62
2022/07/31 01:18:48;;;;;;;5.80;5.20;;;;;;;22.47;60.63;96152.09;5094061;28;20482;-62
2022/07/31 01:21:21;;;;;;;7.78;4.95;;;;;;;22.45;61.18;96143.38;5074798;28;20040;-64
2022/07/31 01:24:36;;;;;;;6.68;5.13;;;;;;;22.36;61.29;96127.44;5073595;28;20044;-63
2022/07/31 01:27:06;;;;;;;8.00;5.50;;;;;;;;;;5073856;28;20092;-64
2022/07/31 01:29:40;;;;;;;5.53;5.03;;;;;;;22.26;61.79;96108.78;5074791;28;20051;-65
2022/07/31 01:32:10;;;;;;;6.93;5.80;;;;;;;22.21;61.93;96094.06;5091858;28;20489;-64
2022/07/31 01:34:42;;;;;;;6.20;5.60;;;;;;;22.15;61.86;96075.19;5093956;28;20140;-65
2022/07/31 01:37:14;;;;;;;6.07;5.05;;;;;;;22.05;62.55;96060.03;5093946;28;20421;-63
2022/07/31 01:39:46;;;;;;;6.72;5.40;;;;;;;22.00;62.71;96058.78;5093564;28;20058;-63
2022/07/31 01:42:17;;;;;;;6.43;5.30;;;;;;;21.91;63.40;96040.00;5073513;28;20053;-66
2022/07/31 01:44:51;;;;;;;6.40;5.50;;;;;;;21.82;63.47;96062.16;5073563;28;20131;-63
2022/07/31 01:47:21;;;;;;;8.48;6.15;;;;;;;21.86;63.62;96066.22;5073432;28;20550;-66
2022/07/31 01:49:50;;;;;;;6.35;5.47;;;;;;;21.97;63.32;96083.84;5073366;28;20483;-68
2022/07/31 01:52:19;;;;;;;6.32;5.75;;;;;;;22.10;63.07;96091.56;5090788;28;20537;-65
2022/07/31 01:54:47;;;;;;;6.95;5.57;;;;;;;22.15;63.31;96099.97;5093610;28;20047;-65
2022/07/31 01:57:17;;;;;;;5.72;5.22;;;;;;;22.14;63.66;96102.75;5093701;28;20080;-66
2022/07/31 01:59:48;;;;;;;9.95;6.20;;;;;;;22.18;63.43;96107.66;5082717;28;20092;-66
2022/07/31 02:02:17;;;;;;;8.90;5.65;;;;;;;22.25;63.63;96101.78;5073371;28;20040;-67
2022/07/31 02:04:46;;;;;;;7.57;5.30;;;;;;;22.27;62.82;96113.97;5073286;28;20048;-66
2022/07/31 02:07:15;;;;;;;9.20;5.47;;;;;;;22.28;62.80;96115.66;5073358;28;20052;-68
2022/07/31 02:09:44;;;;;;;5.82;5.32;;;;;;;22.32;63.03;96122.38;5074120;28;20037;-66
2022/07/31 02:12:13;;;;;;;7.68;5.63;;;;;;;22.38;62.41;96123.63;5073191;28;20045;-65
2022/07/31 02:14:42;;;;;;;10.88;5.97;;;;;;;22.39;62.34;96117.31;5073146;28;20051;-66
2022/07/31 02:17:13;;;;;;;7.15;5.47;;;;;;;22.40;62.06;96113.69;5073085;28;20044;-65
2022/07/31 02:19:41;;;;;;;6.05;5.32;;;;;;;22.45;62.10;96111.41;5074100;28;20098;-67
2022/07/31 02:22:09;;;;;;;6.18;5.20;;;;;;;22.51;61.79;96107.34;5073096;28;20102;-65
2022/07/31 02:24:36;;;;;;;6.50;5.65;;;;;;;22.57;61.75;96100.56;5072632;28;20198;-64
2022/07/31 02:27:04;;;;;;;6.55;5.55;;;;;;;22.56;61.27;96094.44;5072811;28;20135;-68
2022/07/31 02:29:33;;;;;;;6.60;5.18;;;;;;;22.57;61.91;96089.91;5073006;28;20044;-68
2022/07/31 02:32:02;;;;;;;6.25;5.30;;;;;;;22.46;60.55;96096.28;5074008;28;20123;-64
2022/07/31 02:34:31;;;;;;;6.53;5.68;;;;;;;22.44;60.98;96092.91;5072888;28;20047;-67
2022/07/31 02:37:01;;;;;;;7.32;5.78;;;;;;;22.51;61.38;96095.84;5072914;28;20052;-66
2022/07/31 02:39:32;;;;;;;6.68;5.45;;;;;;;22.52;60.36;96098.38;5072932;28;20047;-66
2022/07/31 02:41:59;;;;;;;;;;;;;;;22.56;60.22;96097.09;5092666;28;20083;-66
2022/07/31 02:44:28;;;;;;;5.90;5.30;;;;;;;22.52;60.90;96098.38;5093147;28;19920;-65
2022/07/31 02:46:56;;;;;;;6.90;5.53;;;;;;;22.55;60.35;96102.56;5092968;28;20092;-65
2022/07/31 02:49:24;;;;;;;5.93;5.32;;;;;;;22.47;60.95;96108.59;5092958;28;20463;-66
2022/07/31 02:51:54;;;;;;;5.93;5.20;;;;;;;22.46;61.11;96102.44;5090115;28;20060;-66
2022/07/31 02:54:23;;;;;;;6.25;5.65;;;;;;;22.49;61.32;96103.13;5093059;28;20071;-66
2022/07/31 02:56:51;;;;;;;7.75;5.80;;;;;;;22.53;62.48;96110.69;5093131;28;20383;-64
2022/07/31 02:59:18;;;;;;;9.02;5.57;;;;;;;22.58;62.09;96110.31;5092977;28;20131;-65
2022/07/31 03:01:45;;;;;;;7.43;5.43;;;;;;;22.62;60.45;96113.50;5090881;28;20075;-67
2022/07/31 03:04:12;;;;;;;6.65;5.13;;;;;;;22.67;60.71;96117.41;5092703;28;20063;-67
2022/07/31 03:06:40;;;;;;;8.52;6.10;;;;;;;22.77;60.40;96119.22;5092849;28;20074;-65
2022/07/31 03:09:08;;;;;;;5.78;5.22;;;;;;;22.85;59.96;96128.16;5092820;28;20044;-67
2022/07/31 03:11:36;;;;;;;7.95;5.10;;;;;;;22.91;61.38;96131.25;5090923;28;20481;-64
2022/07/31 03:14:04;;;;;;;5.70;5.20;;;;;;;22.92;60.79;96140.91;5092742;28;20090;-65
2022/07/31 03:16:32;;;;;;;5.90;5.28;;;;;;;22.93;61.23;96145.25;5092632;28;20044;-66
2022/07/31 03:19:01;;;;;;;6.25;5.75;;;;;;;22.94;61.07;96139.78;5092689;28;20048;-66
2022/07/31 03:21:29;;;;;;;5.57;5.05;;;;;;;22.95;61.28;96145.97;5092613;28;20054;-65
2022/07/31 03:23:56;;;;;;;6.13;5.53;;;;;;;22.81;60.48;96152.59;5090695;28;20052;-66
2022/07/31 03:26:26;;;;;;;9.95;6.05;;;;;;;22.61;60.63;96154.47;5092753;28;20101;-66
2022/07/31 03:28:54;;;;;;;7.93;5.55;;;;;;;22.54;60.92;96152.34;5092733;28;20130;-64
2022/07/31 03:31:22;;;;;;;6.38;5.78;;;;;;;22.57;61.06;96151.22;5090065;28;20048;-66
2022/07/31 03:33:49;;;;;;;6.80;6.10;;;;;;;22.61;61.53;96152.66;5072494;28;20049;-64
2022/07/31 03:36:16;;;;;;;5.88;5.32;;;;;;;22.61;61.31;96154.47;5072432;28;20049;-66
2022/07/31 03:38:43;;;;;;;7.72;5.50;;;;;;;22.48;61.77;96155.56;5073847;28;20047;-65
2022/07/31 03:41:11;;;;;;;8.70;5.75;;;;;;;22.46;62.26;96161.03;5075892;28;20052;-64
2022/07/31 03:43:41;;;;;;;6.15;5.55;;;;;;;22.36;63.11;96164.72;5076687;28;20075;-65
2022/07/31 03:46:10;;;;;;;6.13;5.38;;;;;;;22.36;62.92;96152.22;5075806;28;20040;-65
2022/07/31 03:48:37;;;;;;;8.65;6.03;;;;;;;22.27;63.44;96155.75;5075731;28;20049;-68
2022/07/31 03:51:04;;;;;;;5.95;5.32;;;;;;;22.21;63.90;96162.47;5075618;28;20096;-65
2022/07/31 03:53:32;;;;;;;6.68;6.07;;;;;;;22.22;64.23;96170.31;5076605;28;20052;-65
2022/07/31 03:56:02;;;;;;;6.70;5.60;;;;;;;22.18;64.22;96163.59;5075509;28;20105;-64
2022/07/31 03:58:30;;;;;;;7.03;6.37;;;;;;;22.19;64.41;96157.28;5075575;28;20044;-65
2022/07/31 04:00:58;;;;;;;13.07;5.85;;;;;;;22.18;64.62;96155.59;5079925;28;20122;-66
2022/07/31 04:03:30;;;;;;;6.35;5.75;;;;;;;22.14;64.60;96161.34;5095798;28;20105;-67
2022/07/31 04:05:59;;;;;;;9.02;6.22;;;;;;;22.08;64.94;96171.59;5095735;28;20052;-65
2022/07/31 04:08:26;;;;;;;6.47;5.88;;;;;;;22.07;64.74;96166.41;5095653;28;20040;-66
2022/07/31 04:10:53;;;;;;;6.40;5.85;;;;;;;22.17;64.58;96163.72;5094202;28;20044;-66
2022/07/31 04:13:20;;;;;;;6.45;5.82;;;;;;;22.20;64.46;96163.44;5075093;28;20131;-67
2022/07/31 04:15:48;;;;;;;6.45;5.60;;;;;;;22.30;64.20;96153.63;5075266;28;20119;-66
2022/07/31 04:18:16;;;;;;;11.73;5.63;;;;;;;22.38;63.55;96154.75;5075264;28;20045;-65
2022/07/31 04:20:43;;;;;;;6.88;5.15;;;;;;;22.37;63.57;96153.06;5075150;28;20041;-67
2022/07/31 04:23:10;;;;;;;7.10;5.82;;;;;;;22.33;64.48;96142.69;5090038;28;20083;-67
2022/07/31 04:25:37;;;;;;;6.53;5.68;;;;;;;22.41;64.00;96143.81;5094898;28;20093;-65
2022/07/31 04:28:05;;;;;;;6.97;5.75;;;;;;;22.46;63.54;96153.06;5095215;28;20063;-66
2022/07/31 04:30:32;;;;;;;5.78;5.28;;;;;;;22.47;63.72;96156.56;5095564;28;20044;-65
2022/07/31 04:32:59;;;;;;;7.47;5.68;;;;;;;22.49;63.49;96153.75;5085206;28;20107;-64
2022/07/31 04:35:28;;;;;;;9.55;5.80;;;;;;;22.61;63.76;96150.00;5074825;28;20421;-65
2022/07/31 04:37:55;;;;;;;7.57;5.82;;;;;;;22.75;64.37;96151.34;5074958;28;20044;-66
2022/07/31 04:40:25;;;;;;;6.78;5.50;;;;;;;22.84;62.51;96142.47;5074766;28;20052;-65
2022/07/31 04:42:52;;;;;;;6.03;5.43;;;;;;;22.97;63.05;96142.16;5077720;28;20044;-66
2022/07/31 04:45:19;;;;;;;6.82;5.78;;;;;;;23.05;63.58;96138.75;5090004;28;20486;-61
2022/07/31 04:47:46;;;;;;;5.93;5.38;;;;;;;23.16;62.75;96137.75;5074554;28;20510;-61
2022/07/31 04:50:14;;;;;;;7.80;6.00;;;;;;;23.27;63.05;96138.53;5074568;28;20391;-61
2022/07/31 04:52:42;;;;;;;6.68;5.47;;;;;;;23.37;62.25;96138.50;5074259;28;20045;-61
2022/07/31 04:55:10;;;;;;;10.73;5.85;;;;;;;23.49;62.58;96148.00;5092974;28;20063;-61
2022/07/31 04:57:37;;;;;;;6.45;5.25;;;;;;;23.74;61.56;96153.59;5094332;28;20063;-61
2022/07/31 05:00:07;;;;;;;5.85;4.97;;;;;;;23.97;60.65;96155.84;5093906;28;20036;-60
2022/07/31 05:02:34;;;;;;;6.40;5.45;;;;;;;24.28;60.85;96151.94;5094533;28;20043;-61
2022/07/31 05:05:01;;;;;;;5.30;4.80;;;;;;;24.77;60.09;96164.84;5083535;28;20048;-61
2022/07/31 05:07:29;;;;;;;5.65;4.63;;;;;;;25.12;58.45;96175.59;5093764;28;20044;-61
2022/07/31 05:09:58;;;;;;;6.13;5.40;;;;;;;25.28;57.06;96168.69;5094546;28;20044;-61
2022/07/31 05:12:25;;;;;;;5.68;5.18;;;;;;;25.31;56.02;96176.38;5093887;28;20123;-61
2022/07/31 05:14:53;;;;;;;6.35;5.70;;;;;;;25.32;55.54;96178.06;5084607;28;20114;-60
2022/07/31 05:17:20;;;;;;;9.25;4.97;;;;;;;25.33;55.32;96177.03;5083618;28;20140;-61
2022/07/31 05:19:48;;;;;;;7.25;5.38;;;;;;;25.32;55.76;96184.25;5094168;28;20101;-61
2022/07/31 05:22:15;;;;;;;5.65;5.13;;;;;;;25.30;56.99;96186.25;5093374;28;20128;-61
2022/07/31 05:24:43;;;;;;;6.65;5.25;;;;;;;25.21;55.91;96181.84;5093805;28;20060;-61
2022/07/31 05:27:11;;;;;;;7.10;5.18;;;;;;;25.20;56.04;96174.81;5088910;28;20041;-61
2022/07/31 05:29:38;;;;;;;6.00;5.45;;;;;;;25.10;55.31;96170.41;5073746;28;20094;-56
2022/07/31 05:32:06;;;;;;;5.32;4.82;;;;;;;25.07;54.95;96168.06;5073685;28;20049;-61
2022/07/31 05:34:33;;;;;;;6.22;5.63;;;;;;;24.99;55.43;96174.19;5073713;28;20097;-61
2022/07/31 05:37:01;;;;;;;5.35;4.85;;;;;;;25.24;55.05;96178.84;5073709;28;20406;-61
2022/07/31 05:39:29;;;;;;;5.70;5.10;;;;;;;25.72;53.07;96173.03;5073868;28;20048;-63
2022/07/31 05:41:56;;;;;;;5.10;4.40;;;;;;;26.19;51.59;96176.16;5073668;28;20090;-65
2022/07/31 05:44:24;;;;;;;4.85;4.45;;;;;;;26.63;50.20;96180.38;5073444;28;20051;-66
2022/07/31 05:46:52;;;;;;;4.80;4.30;;;;;;;27.11;49.38;96182.31;5073657;28;20044;-65
2022/07/31 05:49:20;;;;;;;8.23;4.18;;;;;;;27.68;48.18;96182.31;5083185;28;20051;-65
2022/07/31 05:51:52;;;;;;;4.95;4.45;;;;;;;28.42;45.71;96172.97;5082707;28;20044;-65
2022/07/31 05:54:20;;;;;;;4.45;4.10;;;;;;;28.98;44.05;96176.34;5073458;28;20063;-64
2022/07/31 05:56:47;;;;;;;4.47;4.07;;;;;;;29.21;43.98;96186.22;5073599;28;20044;-64
2022/07/31 05:59:14;;;;;;;4.57;4.20;;;;;;;29.61;43.55;96191.31;5077478;28;20435;-63
2022/07/31 06:01:43;;;;;;;4.40;4.00;;;;;;;29.85;42.57;96186.63;5093089;28;20048;-62
2022/07/31 06:04:10;;;;;;;4.30;3.90;;;;;;;30.27;42.16;96178.81;5093342;28;20044;-65
2022/07/31 06:06:37;;;;;;;4.13;3.72;;;;;;;30.72;40.69;96177.75;5093515;28;20050;-63
2022/07/31 06:09:04;;;;;;;3.80;3.50;;;;;;;30.97;40.17;96172.78;5076013;28;20091;-63
2022/07/31 06:11:32;;;;;;;11.20;4.22;;;;;;;31.41;38.87;96180.75;5086158;28;20048;-63
2022/07/31 06:14:00;;;;;;;5.70;3.80;;;;;;;31.84;36.31;96171.59;5093055;28;20048;-64
2022/07/31 06:16:27;;;;;;;7.03;3.80;;;;;;;32.07;35.71;96164.19;5092933;28;20090;-64
2022/07/31 06:18:55;;;;;;;5.35;3.80;;;;;;;32.01;35.83;96166.69;5093341;28;20052;-63
2022/07/31 06:21:24;;;;;;;4.30;3.55;;;;;;;32.08;35.71;96166.69;5084432;28;20060;-64
2022/07/31 06:23:51;;;;;;;4.28;3.38;;;;;;;32.51;34.44;96164.72;5072922;28;20045;-65
2022/07/31 06:26:18;;;;;;;3.72;3.25;;;;;;;32.62;33.74;96160.53;5085878;28;20052;-64
2022/07/31 06:28:45;;;;;;;3.90;3.60;;;;;;;32.33;34.84;96165.28;5093306;28;20048;-64
2022/07/31 06:31:17;;;;;;;4.40;3.63;;;;;;;32.39;35.04;96164.47;5089057;28;20098;-65
2022/07/31 06:33:44;;;;;;;3.55;3.28;;;;;;;32.20;33.69;96163.41;5072971;28;20049;-64
2022/07/31 06:36:13;;;;;;;3.85;3.55;;;;;;;31.77;35.81;96168.88;5072988;28;20101;-64
2022/07/31 06:38:40;;;;;;;3.70;3.40;;;;;;;31.07;36.55;96164.34;5073058;28;20083;-66
2022/07/31 06:41:07;;;;;;;4.63;3.33;;;;;;;30.58;38.05;96164.16;5072809;28;20048;-66
2022/07/31 06:43:34;;;;;;;4.95;3.30;;;;;;;30.74;37.04;96163.06;5081571;28;20052;-66
2022/07/31 06:46:02;;;;;;;4.35;4.00;;;;;;;30.69;38.10;96161.94;5072868;28;20048;-65
2022/07/31 06:48:30;;;;;;;3.78;3.40;;;;;;;30.26;38.47;96160.97;5072903;28;20078;-63
2022/07/31 06:50:59;;;;;;;4.93;3.67;;;;;;;29.93;38.85;96169.53;5072785;28;20170;-66
2022/07/31 06:53:28;;;;;;;3.70;3.40;;;;;;;29.42;38.98;96163.09;5087386;28;20412;-64
2022/07/31 06:55:56;;;;;;;3.47;3.22;;;;;;;29.17;39.53;96161.53;5092891;28;20127;-64
2022/07/31 06:58:24;;;;;;;3.72;3.35;;;;;;;28.89;40.31;96167.50;5092710;28;20048;-65
2022/07/31 07:00:51;;;;;;;4.70;3.22;;;;;;;28.35;40.74;96166.66;5092831;28;20135;-66
2022/07/31 07:03:19;;;;;;;3.75;3.45;;;;;;;28.02;41.24;96170.38;5089643;28;20066;-65
2022/07/31 07:05:47;;;;;;;3.60;3.30;;;;;;;27.57;42.96;96172.78;5092285;28;20134;-64
2022/07/31 07:08:14;;;;;;;3.83;3.22;;;;;;;27.32;43.53;96173.72;5092922;28;20555;-65
2022/07/31 07:10:43;;;;;;;3.08;2.88;;;;;;;27.44;42.88;96173.31;5084082;28;20055;-65
2022/07/31 07:13:10;;;;;;;3.50;3.20;;;;;;;27.46;44.10;96176.69;5073302;28;20060;-64
2022/07/31 07:15:40;;;;;;;3.17;2.97;;;;;;;27.57;43.77;96176.28;5076351;28;20063;-65
2022/07/31 07:18:07;;;;;;;4.07;3.00;;;;;;;27.68;42.46;96168.88;5076088;28;20048;-64
2022/07/31 07:20:34;;;;;;;3.33;3.10;;;;;;;27.63;41.86;96174.75;5077198;28;20496;-65
2022/07/31 07:23:02;;;;;;;2.83;2.53;;;;;;;27.59;41.55;96176.13;5076288;28;20044;-64
2022/07/31 07:25:30;;;;;;;3.05;2.40;;;;;;;27.44;42.28;96170.63;5075966;28;20055;-63
2022/07/31 07:27:58;;;;;;;3.17;2.33;;;;;;;27.43;42.33;96168.97;5076054;28;20052;-65
2022/07/31 07:30:27;;;;;;;3.05;2.45;;;;;;;27.60;42.64;96170.56;5075934;28;20044;-63
2022/07/31 07:32:55;;;;;;;2.63;2.42;;;;;;;27.95;42.07;96169.41;5076327;28;20048;-64
2022/07/31 07:35:22;;;;;;;3.92;2.13;;;;;;;28.21;40.22;96163.72;5075975;28;20055;-64
2022/07/31 07:37:49;;;;;;;3.67;2.33;;;;;;;28.74;40.40;96162.94;5076064;28;20044;-64
2022/07/31 07:40:17;;;;;;;3.15;2.25;;;;;;;29.04;38.60;96161.34;5075886;28;20048;-64
2022/07/31 07:42:44;;;;;;;2.45;2.25;;;;;;;28.68;39.25;96165.53;5090519;28;20075;-65
2022/07/31 07:45:13;;;;;;;2.47;2.28;;;;;;;28.67;39.29;96162.00;5096017;28;20048;-65
2022/07/31 07:47:41;;;;;;;2.40;2.20;;;;;;;28.85;40.34;96160.81;5096028;28;20048;-64
2022/07/31 07:50:10;;;;;;;2.53;2.33;;;;;;;29.19;38.56;96159.47;5095931;28;20486;-64
2022/07/31 07:52:38;;;;;;;2.80;2.60;;;;;;;29.45;36.97;96160.03;5084884;28;20050;-64
2022/07/31 07:55:07;;;;;;;2.30;2.15;;;;;;;29.63;37.34;96160.50;5075792;28;20505;-64
2022/07/31 07:57:36;;;;;;;2.45;2.25;;;;;;;29.79;37.05;96157.78;5075632;28;20106;-64
2022/07/31 08:00:06;;;;;;;2.20;2.10;;;;;;;30.04;36.12;96168.19;5092433;28;20071;-65
2022/07/31 08:02:34;;;;;;;3.25;2.17;;;;;;;30.10;36.99;96156.66;5095741;28;20147;-64
2022/07/31 08:05:02;;;;;;;2.78;2.10;;;;;;;30.58;35.17;96160.66;5083536;28;20072;-64
2022/07/31 08:07:30;;;;;;;3.92;2.40;;;;;;;31.00;34.65;96153.50;5075537;28;20502;-65
2022/07/31 08:09:57;;;;;;;2.97;2.78;;;;;;;31.06;34.47;96154.56;5076303;28;20123;-65
2022/07/31 08:12:24;;;;;;;3.22;2.35;;;;;;;31.35;34.30;96151.84;5075183;28;20099;-65
2022/07/31 08:14:52;;;;;;;2.50;2.30;;;;;;;31.97;33.30;96153.78;5075392;28;20044;-64
2022/07/31 08:17:19;;;;;;;2.35;2.15;;;;;;;32.26;31.78;96155.28;5075265;28;20053;-64
2022/07/31 08:19:48;;;;;;;2.60;2.40;;;;;;;32.40;32.08;96152.59;5082010;28;20051;-65
2022/07/31 08:22:15;;;;;;;2.22;2.10;;;;;;;32.60;31.63;96141.78;5095566;28;20075;-64
2022/07/31 08:24:42;;;;;;;2.75;2.50;;;;;;;32.71;31.98;96145.75;5094595;28;20621;-64
2022/07/31 08:27:25;;;;;;;3.00;2.53;;;;;;;32.98;31.46;96147.59;5095331;28;20410;-65
2022/07/31 08:29:55;;;;;;;3.17;2.30;;;;;;;33.07;30.46;96146.34;5090608;28;20050;-65
2022/07/31 08:32:23;;;;;;;4.85;2.83;;;;;;;32.94;30.72;96141.78;5088865;28;20114;-64
2022/07/31 08:34:52;;;;;;;2.42;2.22;;;;;;;32.51;30.69;96141.16;5094852;28;20043;-65
2022/07/31 08:37:20;;;;;;;2.92;2.45;;;;;;;32.13;31.95;96142.59;5094977;28;20040;-65
2022/07/31 08:39:49;;;;;;;4.40;3.28;;;;;;;32.28;31.65;96139.69;5090627;28;20101;-64
2022/07/31 08:42:18;;;;;;;3.35;2.75;;;;;;;32.26;31.89;96147.16;5076783;28;20135;-65
2022/07/31 08:44:46;;;;;;;2.60;2.40;;;;;;;32.30;31.95;96146.75;5075477;28;20083;-64
2022/07/31 08:47:16;;;;;;;3.97;2.40;;;;;;;32.30;31.59;96142.19;5074555;28;20102;-65
2022/07/31 08:49:45;;;;;;;2.75;2.47;;;;;;;32.20;32.24;96147.19;5074862;28;20049;-62
2022/07/31 08:52:18;;;;;;;3.25;3.05;;;;;;;32.22;32.03;96147.78;5074572;28;20387;-62
2022/07/31 08:54:46;;;;;;;3.92;2.30;;;;;;;32.19;31.97;96143.63;5075177;28;20496;-63
2022/07/31 08:57:16;;;;;;;5.32;2.55;;;;;;;31.86;32.80;96149.75;5074674;28;20049;-63
2022/07/31 08:59:43;;;;;;;2.47;2.28;;;;;;;31.76;32.50;96144.75;5075272;28;20048;-63
2022/07/31 09:02:12;;;;;;;4.55;2.60;;;;;;;31.81;31.55;96139.56;5083326;28;20047;-63
2022/07/31 09:04:40;;;;;;;5.50;2.55;;;;;;;31.73;33.63;96140.59;5081084;28;20045;-63
2022/07/31 09:07:10;;;;;;;4.72;2.63;;;;;;;31.88;33.24;96134.19;5074183;28;20098;-63
2022/07/31 09:09:43;;;;;;;2.60;2.40;;;;;;;31.93;31.89;96134.41;5074168;28;20097;-63
2022/07/31 09:12:10;;;;;;;2.83;2.50;;;;;;;31.67;32.31;96140.56;5079433;28;20047;-63
2022/07/31 09:14:38;;;;;;;3.38;2.80;;;;;;;31.67;32.10;96140.56;5093900;28;20056;-65
2022/07/31 09:17:14;;;;;;;3.25;2.63;;;;;;;31.50;32.71;96132.78;5094395;28;20048;-65
2022/07/31 09:19:42;;;;;;;2.70;2.50;;;;;;;31.43;33.39;96143.59;5094233;28;20040;-66
2022/07/31 09:22:20;;;;;;;3.15;2.20;;;;;;;31.49;32.75;96132.00;5091101;28;20477;-64
2022/07/31 09:24:49;;;;;;;2.28;2.17;;;;;;;31.64;32.72;96133.69;5073611;28;20074;-65
2022/07/31 09:27:18;;;;;;;4.07;2.65;;;;;;;31.84;33.47;96131.03;5073913;28;20078;-65
2022/07/31 09:29:49;;;;;;;2.50;2.30;;;;;;;31.80;33.04;96127.09;5073699;28;20131;-64
2022/07/31 09:32:18;;;;;;;2.85;2.60;;;;;;;31.72;32.66;96121.88;5073671;28;20135;-63
2022/07/31 09:34:46;;;;;;;2.70;2.47;;;;;;;31.70;31.87;96121.22;5073715;28;20080;-64
2022/07/31 09:37:16;;;;;;;2.70;2.50;;;;;;;31.65;31.91;96114.56;5072935;28;20048;-64
2022/07/31 09:39:52;;;;;;;9.53;2.30;;;;;;;31.83;31.67;96117.72;5073577;28;20130;-65
2022/07/31 09:42:20;;;;;;;7.30;2.65;;;;;;;32.31;31.23;96107.84;5073483;28;20064;-65
2022/07/31 09:44:49;;;;;;;2.67;2.40;;;;;;;32.49;30.19;96110.81;5091105;28;20044;-64
2022/07/31 09:47:25;;;;;;;2.47;2.28;;;;;;;32.36;30.82;96111.59;5093711;28;20079;-64
2022/07/31 09:49:54;;;;;;;3.47;2.55;;;;;;;31.70;31.28;96105.88;5093714;28;20048;-64
2022/07/31 09:52:23;;;;;;;2.78;2.58;;;;;;;31.38;32.17;96110.94;5093607;28;20478;-63
2022/07/31 09:55:02;;;;;;;4.60;2.80;;;;;;;31.54;31.85;96100.81;5091143;28;20048;-65
2022/07/31 09:57:29;;;;;;;2.65;2.45;;;;;;;31.60;34.53;96106.22;5093605;28;20109;-65
2022/07/31 09:59:58;;;;;;;4.78;2.53;;;;;;;31.66;30.62;96096.47;5093568;28;20052;-65
2022/07/31 10:02:26;;;;;;;3.10;2.80;;;;;;;31.75;32.14;96099.81;5092972;28;20036;-65
2022/07/31 10:04:55;;;;;;;3.20;2.30;;;;;;;32.06;30.95;96098.47;5084017;28;20135;-63
2022/07/31 10:07:26;;;;;;;3.20;3.00;;;;;;;32.35;31.42;96101.00;5085035;28;20151;-63
2022/07/31 10:09:58;;;;;;;3.20;2.70;;;;;;;32.64;31.03;96098.91;5093425;28;20086;-63
2022/07/31 10:12:29;;;;;;;4.25;2.97;;;;;;;32.63;31.35;96094.56;5079016;28;20127;-63
2022/07/31 10:14:59;;;;;;;3.20;3.00;;;;;;;32.49;30.74;96089.16;5073159;28;20048;-65
2022/07/31 10:17:30;;;;;;;3.20;3.00;;;;;;;32.47;30.29;96082.28;5072974;28;20076;-65
2022/07/31 10:20:01;;;;;;;4.05;2.85;;;;;;;32.52;30.17;96083.34;5073055;28;20080;-65
2022/07/31 10:22:34;;;;;;;3.50;3.20;;;;;;;32.52;29.98;96080.63;5073907;28;20044;-65
2022/07/31 10:25:04;;;;;;;3.80;3.25;;;;;;;31.97;31.04;96072.69;5072754;28;20051;-63
2022/07/31 10:27:32;;;;;;;4.72;3.42;;;;;;;32.04;31.47;96073.50;5072998;28;20494;-64
2022/07/31 10:30:02;;;;;;;3.78;3.40;;;;;;;32.05;33.25;96068.94;5073115;28;20048;-66
2022/07/31 10:32:29;;;;;;;4.53;3.20;;;;;;;32.24;31.83;96064.56;5073003;28;20052;-64
2022/07/31 10:34:57;;;;;;;3.47;3.17;;;;;;;32.60;30.89;96063.31;5083224;28;20048;-64
2022/07/31 10:37:32;;;;;;;4.65;2.80;;;;;;;33.11;30.63;96066.34;5087522;28;20048;-65
2022/07/31 10:40:10;;;;;;;3.47;3.17;;;;;;;33.34;29.82;96069.59;5093037;28;20044;-65
2022/07/31 10:42:44;;;;;;;3.33;3.10;;;;;;;33.11;29.83;96070.94;5089685;28;20482;-64
2022/07/31 10:45:14;;;;;;;6.82;3.55;;;;;;;33.19;30.43;96067.19;5092646;28;20382;-64
2022/07/31 10:47:41;;;;;;;4.32;3.20;;;;;;;33.16;30.69;96073.84;5094468;28;20090;-66
2022/07/31 10:50:21;;;;;;;3.75;3.35;;;;;;;33.01;30.69;96060.50;5096957;28;20481;-66
2022/07/31 10:52:48;;;;;;;3.77;3.47;;;;;;;32.84;30.84;96065.56;5094290;28;20046;-65
2022/07/31 10:55:21;;;;;;;6.50;3.78;;;;;;;32.64;30.68;96063.75;5096015;28;20055;-65
2022/07/31 10:57:50;;;;;;;6.03;3.90;;;;;;;32.47;30.88;96066.84;5076594;28;20049;-65
2022/07/31 11:00:19;;;;;;;4.57;3.72;;;;;;;32.26;31.89;96063.31;5076589;28;20044;-65
2022/07/31 11:02:47;;;;;;;5.57;3.80;;;;;;;32.01;32.42;96068.50;5086526;28;20052;-65
2022/07/31 11:05:20;;;;;;;7.13;4.15;;;;;;;31.82;31.86;96065.56;5096857;28;20052;-64
2022/07/31 11:07:47;;;;;;;4.70;3.90;;;;;;;31.48;33.00;96061.94;5096328;28;20060;-65
2022/07/31 11:10:20;;;;;;;4.82;4.43;;;;;;;31.24;33.13;96064.13;5090497;28;20047;-65
2022/07/31 11:12:59;;;;;;;5.70;4.10;;;;;;;31.10;33.34;96065.91;5088293;28;20132;-65
2022/07/31 11:15:27;;;;;;;6.85;4.40;;;;;;;31.00;34.32;96063.59;5096533;28;20051;-65
2022/07/31 11:17:55;;;;;;;4.18;3.78;;;;;;;30.89;34.57;96068.53;5096649;28;20513;-65
2022/07/31 11:20:26;;;;;;;5.85;4.32;;;;;;;30.91;34.25;96072.88;5096574;28;20044;-65
2022/07/31 11:22:58;;;;;;;7.00;4.43;;;;;;;30.99;34.74;96065.44;5096398;28;20055;-65
2022/07/31 11:25:29;;;;;;;9.43;4.30;;;;;;;31.04;35.01;96072.09;5096315;28;20074;-65
2022/07/31 11:27:58;;;;;;;6.97;4.18;;;;;;;30.95;34.11;96066.91;5096462;28;20047;-64
2022/07/31 11:30:26;;;;;;;4.82;4.43;;;;;;;30.83;35.50;96074.72;5096260;28;20048;-65
2022/07/31 11:32:54;;;;;;;5.05;4.55;;;;;;;30.78;34.68;96071.75;5096362;28;20087;-65
2022/07/31 11:35:25;;;;;;;5.18;4.30;;;;;;;30.61;34.77;96071.22;5096334;28;20074;-65
2022/07/31 11:37:53;;;;;;;4.50;4.10;;;;;;;30.13;36.47;96062.72;5096159;28;20485;-65
2022/07/31 11:40:20;;;;;;;5.28;3.47;;;;;;;29.73;37.42;96065.91;5096216;28;20123;-65
2022/07/31 11:42:49;;;;;;;4.75;3.33;;;;;;;29.65;38.07;96060.66;5096202;28;20048;-64